Minneapolis-St Paul International/Wold-Chamberlain Airport
KMSP : now visible

Airfield :











YOU CAN JOIN US ON...

 
LOGIN :

Register | Disclaimer

   EN    FR    IT 

 









Legend :    VFR   Marginal VFR   IFR   Intensive IFR   Very Intensive IFR
Visi :
Ceiling :
>= 8 km
>= 3000ft
5 to 8 km
1000 to 3000 ft
1500m to 5 km
500 to 1000 ft
800 to 1500m
200 to 500 ft
< 800m
< 200 ft
Symbols :   Thunderstorms  Fog  Heavy snow  Heavy precipitations  Wind > 20 kt







- Airport Elevation : 841 ft
- IATA code : MSP


KMSP - Minneapolis-St Paul International/Wold-Chamberlain

CURRENT METAR :
  • 161353Z 00000KT 9SM BKN180 M17/M18 A3017 RMK AO2 SLP238 T11671183

EXPIRED METARs :
  • 161253Z 00000KT 10SM BKN170 M18/M19 A3016 RMK AO2 SLP234 I1000 T11781194
  • 161153Z 00000KT 10SM BKN170 M18/M19 A3017 RMK AO2 SLP236 4/012 T11831194 11167 21183 56003

TAF KMSP
Valid from the 16 at 12:00 until the 17 at 18:00 UTC


161135Z 1612/1718 07004KT P6SM BKN200
FM170500 09005KT P6SM BKN050
FM170800 08006KT 6SM -SHSN OVC030
FM171200 07007KT 3SM -SN OVC025
KZMP FIR / North America



MET'MAP, your aeronautical weather chart ! - Copyright ORBIFLY December 2007 - Disclaimer

ORBIFLY MET'MAP TEAM :

Programming & Development : Alexandra Zaïnal
Concept & Development : Baudouin d'Aumeries
Co-Development & Prog : Marc-Olivier Méhu
Technical & hardware support : Manuel Goepfert

Contact : metmap@orbifly.com




SOURCES & CREDITS :

   NOAA       Earth
Advisory